createdAt,value
2018-03-09T00:00:17.925Z,0
2018-03-09T00:01:18.629Z,0
2018-03-09T00:02:19.342Z,0
2018-03-09T00:03:20.046Z,0
2018-03-09T00:04:20.748Z,0
2018-03-09T00:05:21.461Z,0
2018-03-09T00:06:22.176Z,0
2018-03-09T00:07:22.929Z,0
2018-03-09T00:08:23.595Z,0
2018-03-09T00:09:24.301Z,0
2018-03-09T00:10:25.016Z,0
2018-03-09T00:11:25.728Z,0
2018-03-09T00:12:26.429Z,0
2018-03-09T00:13:27.130Z,0
2018-03-09T00:14:27.836Z,0
2018-03-09T00:15:28.540Z,0
2018-03-09T00:16:29.253Z,0
2018-03-09T00:17:29.958Z,0
2018-03-09T00:18:30.662Z,0
2018-03-09T00:19:31.376Z,0
2018-03-09T00:20:32.081Z,0
2018-03-09T00:21:32.793Z,0
2018-03-09T00:22:33.495Z,0
2018-03-09T00:23:34.210Z,0
2018-03-09T00:24:34.915Z,0
2018-03-09T00:25:35.617Z,0
2018-03-09T00:26:36.329Z,0
2018-03-09T00:27:37.031Z,0
2018-03-09T00:28:37.743Z,0
2018-03-09T00:29:38.445Z,0
2018-03-09T00:30:39.146Z,0
2018-03-09T00:31:39.849Z,0
2018-03-09T00:32:40.555Z,0
2018-03-09T00:33:41.262Z,0
2018-03-09T00:34:41.966Z,0
2018-03-09T00:35:42.670Z,0
2018-03-09T00:36:43.388Z,0
2018-03-09T00:37:44.088Z,0
2018-03-09T00:38:44.794Z,0
2018-03-09T00:39:45.498Z,0
2018-03-09T00:40:46.201Z,0
2018-03-09T00:41:46.904Z,0
2018-03-09T00:42:47.621Z,0
2018-03-09T00:43:48.338Z,0
2018-03-09T00:44:49.040Z,0
2018-03-09T00:45:49.746Z,0
2018-03-09T00:46:50.456Z,0
2018-03-09T00:47:51.170Z,0
2018-03-09T00:48:51.891Z,0
2018-03-09T00:49:52.575Z,0
2018-03-09T00:50:53.276Z,0
2018-03-09T00:51:54.036Z,0
2018-03-09T00:52:54.682Z,0
2018-03-09T00:53:55.396Z,0
2018-03-09T00:54:56.109Z,0
2018-03-09T00:55:56.812Z,0
2018-03-09T00:56:57.514Z,0
2018-03-09T00:57:58.222Z,0
2018-03-09T00:58:58.936Z,0
2018-03-09T00:59:59.659Z,0
2018-03-09T01:01:00.339Z,0
2018-03-09T01:02:01.044Z,0
2018-03-09T01:03:01.747Z,0
2018-03-09T01:04:02.451Z,0
2018-03-09T01:05:03.156Z,0
2018-03-09T01:06:03.870Z,0
2018-03-09T01:07:04.574Z,0
2018-03-09T01:08:05.278Z,0
2018-03-09T01:09:05.995Z,0
2018-03-09T01:10:06.709Z,0
2018-03-09T01:11:07.422Z,0
2018-03-09T01:12:08.124Z,0
2018-03-09T01:13:08.827Z,0
2018-03-09T01:14:09.529Z,0
2018-03-09T01:15:10.231Z,0
2018-03-09T01:16:10.937Z,0
2018-03-09T01:17:11.641Z,0
2018-03-09T01:18:12.346Z,0
2018-03-09T01:19:13.050Z,0
2018-03-09T01:20:13.752Z,0
2018-03-09T01:21:14.456Z,0
2018-03-09T01:22:15.171Z,0
2018-03-09T01:23:15.872Z,0
2018-03-09T01:24:16.588Z,0
2018-03-09T01:25:17.304Z,0
2018-03-09T01:26:18.017Z,0
2018-03-09T01:27:18.731Z,0
2018-03-09T01:28:19.469Z,0
2018-03-09T01:29:20.194Z,0
2018-03-09T01:30:20.919Z,0
2018-03-09T01:31:21.645Z,0
2018-03-09T01:32:22.378Z,0
2018-03-09T01:33:23.100Z,0
2018-03-09T01:34:23.859Z,0
2018-03-09T01:35:24.583Z,0
2018-03-09T01:36:25.308Z,0
2018-03-09T01:37:26.059Z,0
2018-03-09T01:38:26.782Z,0
2018-03-09T01:39:27.500Z,0
2018-03-09T01:40:28.251Z,0
2018-03-09T01:41:28.966Z,0
2018-03-09T01:42:29.680Z,0
2018-03-09T01:43:30.396Z,0
2018-03-09T01:44:31.123Z,0
2018-03-09T01:45:31.838Z,0
2018-03-09T01:46:32.564Z,0
2018-03-09T01:47:33.323Z,0
2018-03-09T01:48:34.073Z,0
2018-03-09T01:49:34.786Z,0
2018-03-09T01:50:35.525Z,0
2018-03-09T01:51:36.249Z,0
2018-03-09T01:52:36.963Z,0
2018-03-09T01:53:37.675Z,0
2018-03-09T01:54:38.390Z,0
2018-03-09T01:55:39.116Z,0
2018-03-09T01:56:39.830Z,0
2018-03-09T01:57:40.546Z,0
2018-03-09T01:58:41.285Z,0
2018-03-09T01:59:42.011Z,0
2018-03-09T02:00:42.725Z,0
2018-03-09T02:01:43.441Z,0
2018-03-09T02:02:44.155Z,0
2018-03-09T02:03:44.869Z,0
2018-03-09T02:04:45.596Z,0
2018-03-09T02:05:46.310Z,0
2018-03-09T02:06:47.024Z,0
2018-03-09T02:07:47.740Z,0
2018-03-09T02:08:48.490Z,0
2018-03-09T02:09:49.204Z,0
2018-03-09T02:10:49.920Z,0
2018-03-09T02:11:50.659Z,0
2018-03-09T02:12:51.384Z,0
2018-03-09T02:13:52.099Z,0
2018-03-09T02:14:52.851Z,0
2018-03-09T02:15:53.566Z,0
2018-03-09T02:16:54.284Z,0
2018-03-09T02:17:54.995Z,0
2018-03-09T02:18:55.736Z,0
2018-03-09T02:19:56.486Z,0
2018-03-09T02:20:57.201Z,0
2018-03-09T02:21:57.949Z,0
2018-03-09T02:22:58.640Z,0
2018-03-09T02:23:59.364Z,0
2018-03-09T02:25:00.091Z,0
2018-03-09T02:26:00.816Z,0
2018-03-09T02:27:01.566Z,0
2018-03-09T02:28:02.293Z,0
2018-03-09T02:29:03.041Z,0
2018-03-09T02:30:03.768Z,0
2018-03-09T02:31:04.482Z,0
2018-03-09T02:32:05.209Z,0
2018-03-09T02:33:05.963Z,0
2018-03-09T02:34:06.684Z,0
2018-03-09T02:35:07.408Z,0
2018-03-09T02:36:08.135Z,0
2018-03-09T02:37:08.851Z,0
2018-03-09T02:38:09.597Z,0
2018-03-09T02:39:10.313Z,0
2018-03-09T02:40:11.038Z,0
2018-03-09T02:41:11.750Z,0
2018-03-09T02:42:12.464Z,0
2018-03-09T02:43:13.179Z,0
2018-03-09T02:44:13.904Z,0
2018-03-09T02:45:14.617Z,0
2018-03-09T02:46:15.340Z,0
2018-03-09T02:47:16.156Z,0
2018-03-09T02:48:16.817Z,0
2018-03-09T02:49:17.532Z,0
2018-03-09T02:50:18.249Z,0
2018-03-09T02:51:18.958Z,0
2018-03-09T02:52:19.693Z,0
2018-03-09T02:53:20.420Z,0
2018-03-09T02:54:21.181Z,0
2018-03-09T02:55:21.895Z,0
2018-03-09T02:56:22.608Z,0
2018-03-09T02:57:23.345Z,0
2018-03-09T02:58:24.069Z,0
2018-03-09T02:59:24.821Z,0
2018-03-09T03:00:25.554Z,0
2018-03-09T03:01:26.271Z,0
2018-03-09T03:02:26.984Z,0
2018-03-09T03:03:27.723Z,0
2018-03-09T03:04:28.474Z,0
2018-03-09T03:05:29.187Z,0
2018-03-09T03:06:29.937Z,0
2018-03-09T03:07:30.663Z,0
2018-03-09T03:08:31.423Z,0
2018-03-09T03:09:32.137Z,0
2018-03-09T03:10:32.850Z,0
2018-03-09T03:11:33.566Z,0
2018-03-09T03:12:34.301Z,0
2018-03-09T03:13:35.017Z,0
2018-03-09T03:14:35.731Z,0
2018-03-09T03:15:36.458Z,0
2018-03-09T03:16:37.218Z,0
2018-03-09T03:17:37.946Z,0
2018-03-09T03:18:38.706Z,0
2018-03-09T03:19:39.466Z,0
2018-03-09T03:20:40.193Z,0
2018-03-09T03:21:40.909Z,0
2018-03-09T03:22:41.622Z,0
2018-03-09T03:23:42.370Z,0
2018-03-09T03:24:43.084Z,0
2018-03-09T03:25:43.800Z,0
2018-03-09T03:26:44.525Z,0
2018-03-09T03:27:45.241Z,0
2018-03-09T03:28:45.955Z,0
2018-03-09T03:29:46.671Z,0
2018-03-09T03:30:47.383Z,0
2018-03-09T03:31:48.109Z,0
2018-03-09T03:32:48.834Z,0
2018-03-09T03:33:49.546Z,0
2018-03-09T03:34:50.271Z,0
2018-03-09T03:35:50.996Z,0
2018-03-09T03:36:51.745Z,0
2018-03-09T03:37:52.457Z,0
2018-03-09T03:38:53.183Z,0
2018-03-09T03:39:53.908Z,0
2018-03-09T03:40:54.633Z,0
2018-03-09T03:41:55.347Z,0
2018-03-09T03:42:56.077Z,0
2018-03-09T03:43:56.799Z,0
2018-03-09T03:44:57.513Z,0
2018-03-09T03:45:58.227Z,0
2018-03-09T03:46:58.954Z,0
2018-03-09T03:47:59.686Z,0
2018-03-09T03:49:00.395Z,0
2018-03-09T03:50:01.133Z,0
2018-03-09T03:51:01.872Z,0
2018-03-09T03:52:02.588Z,0
2018-03-09T03:53:03.307Z,0
2018-03-09T03:54:04.020Z,0
2018-03-09T03:55:04.757Z,0
2018-03-09T03:56:05.503Z,0
2018-03-09T03:57:06.254Z,0
2018-03-09T03:58:06.980Z,0
2018-03-09T03:59:07.730Z,0
2018-03-09T04:00:08.455Z,0
2018-03-09T04:01:09.183Z,0
2018-03-09T04:02:09.943Z,0
2018-03-09T04:03:10.658Z,0
2018-03-09T04:04:11.399Z,0
2018-03-09T04:05:12.137Z,0
2018-03-09T04:06:12.864Z,0
2018-03-09T04:07:13.596Z,0
2018-03-09T04:08:14.316Z,0
2018-03-09T04:09:15.043Z,0
2018-03-09T04:10:15.769Z,0
2018-03-09T04:11:16.494Z,0
2018-03-09T04:12:17.218Z,0
2018-03-09T04:13:17.970Z,0
2018-03-09T04:14:18.683Z,0
2018-03-09T04:15:19.422Z,0
2018-03-09T04:16:20.136Z,0
2018-03-09T04:17:20.850Z,0
2018-03-09T04:18:21.576Z,0
2018-03-09T04:19:22.304Z,0
2018-03-09T04:20:23.019Z,0
2018-03-09T04:21:23.746Z,0
2018-03-09T04:22:24.459Z,0
2018-03-09T04:23:25.185Z,0
2018-03-09T04:24:25.912Z,0
2018-03-09T04:25:26.636Z,0
2018-03-09T04:26:27.386Z,0
2018-03-09T04:27:28.112Z,0
2018-03-09T04:28:28.828Z,0
2018-03-09T04:29:29.542Z,0
2018-03-09T04:30:30.301Z,0
2018-03-09T04:31:31.021Z,0
2018-03-09T04:32:31.734Z,0
2018-03-09T04:33:32.446Z,0
2018-03-09T04:34:33.171Z,0
2018-03-09T04:35:33.886Z,0
2018-03-09T04:36:34.601Z,0
2018-03-09T04:37:35.318Z,0
2018-03-09T04:38:36.043Z,0
2018-03-09T04:39:36.768Z,0
2018-03-09T04:40:37.530Z,0
2018-03-09T04:41:38.247Z,0
2018-03-09T04:42:38.972Z,0
2018-03-09T04:43:39.721Z,0
2018-03-09T04:44:40.474Z,0
2018-03-09T04:45:41.162Z,0
2018-03-09T04:46:41.876Z,0
2018-03-09T04:47:42.601Z,0
2018-03-09T04:48:43.362Z,0
2018-03-09T04:49:44.088Z,0
2018-03-09T04:50:44.814Z,0
2018-03-09T04:51:45.539Z,0
2018-03-09T04:52:46.256Z,0
2018-03-09T04:53:46.995Z,0
2018-03-09T04:54:47.711Z,0
2018-03-09T04:55:48.437Z,0
2018-03-09T04:56:49.163Z,0
2018-03-09T04:57:49.894Z,0
2018-03-09T04:58:50.640Z,0
2018-03-09T04:59:51.381Z,0
2018-03-09T05:00:52.102Z,0
2018-03-09T05:01:52.827Z,0
2018-03-09T05:02:53.541Z,0
2018-03-09T05:03:54.269Z,0
2018-03-09T05:04:54.980Z,0
2018-03-09T05:05:55.708Z,0
2018-03-09T05:06:56.434Z,0
2018-03-09T05:07:57.160Z,0
2018-03-09T05:08:57.908Z,0
2018-03-09T05:09:58.622Z,0
2018-03-09T05:10:59.352Z,0
2018-03-09T05:12:00.064Z,0
2018-03-09T05:13:00.777Z,0
2018-03-09T05:14:01.528Z,0
2018-03-09T05:15:02.252Z,0
2018-03-09T05:16:02.968Z,0
2018-03-09T05:17:03.684Z,0
2018-03-09T05:18:04.399Z,0
2018-03-09T05:19:05.114Z,0
2018-03-09T05:20:05.831Z,0
2018-03-09T05:21:06.554Z,0
2018-03-09T05:22:07.268Z,0
2018-03-09T05:23:08.006Z,0
2018-03-09T05:24:08.724Z,0
2018-03-09T05:25:09.438Z,0
2018-03-09T05:26:10.179Z,0
2018-03-09T05:27:10.894Z,0
2018-03-09T05:28:11.608Z,0
2018-03-09T05:29:12.323Z,0
2018-03-09T05:30:13.049Z,0
2018-03-09T05:31:13.802Z,0
2018-03-09T05:32:14.526Z,0
2018-03-09T05:33:15.250Z,0
2018-03-09T05:34:15.964Z,0
2018-03-09T05:35:16.677Z,0
2018-03-09T05:36:17.396Z,0
2018-03-09T05:37:18.109Z,0
2018-03-09T05:38:18.830Z,0
2018-03-09T05:39:19.539Z,0
2018-03-09T05:40:20.278Z,0
2018-03-09T05:41:20.996Z,0
2018-03-09T05:42:21.718Z,0
2018-03-09T05:43:22.454Z,0
2018-03-09T05:44:23.196Z,0
2018-03-09T05:45:23.925Z,0
2018-03-09T05:46:24.638Z,0
2018-03-09T05:47:25.364Z,0
2018-03-09T05:48:26.081Z,0
2018-03-09T05:49:26.808Z,0
2018-03-09T05:50:27.559Z,0
2018-03-09T05:51:28.276Z,0
2018-03-09T05:52:28.993Z,0
2018-03-09T05:53:29.713Z,0
2018-03-09T05:54:30.427Z,0
2018-03-09T05:55:31.177Z,0
2018-03-09T05:56:31.911Z,0
2018-03-09T05:57:32.662Z,0
2018-03-09T05:58:33.381Z,0
2018-03-09T05:59:34.099Z,5
2018-03-09T06:00:34.829Z,5
2018-03-09T06:01:35.556Z,5
2018-03-09T06:02:36.292Z,5
2018-03-09T06:03:37.053Z,5
2018-03-09T06:04:37.769Z,5
2018-03-09T06:05:38.487Z,5
2018-03-09T06:06:39.216Z,5
2018-03-09T06:07:39.934Z,10
2018-03-09T06:08:40.665Z,10
2018-03-09T06:09:41.398Z,10
2018-03-09T06:10:42.125Z,10
2018-03-09T06:11:42.845Z,10
2018-03-09T06:12:43.587Z,15
2018-03-09T06:13:44.343Z,15
2018-03-09T06:14:45.062Z,15
2018-03-09T06:15:45.779Z,15
2018-03-09T06:16:46.509Z,15
2018-03-09T06:17:47.272Z,15
2018-03-09T06:18:47.992Z,15
2018-03-09T06:19:48.713Z,15
2018-03-09T06:20:49.443Z,15
2018-03-09T06:21:50.163Z,20
2018-03-09T06:22:50.884Z,20
2018-03-09T06:23:51.605Z,20
2018-03-09T06:24:52.323Z,20
2018-03-09T06:25:53.054Z,20
2018-03-09T06:26:53.772Z,25
2018-03-09T06:27:54.495Z,25
2018-03-09T06:28:55.216Z,25
2018-03-09T06:29:55.943Z,25
2018-03-09T06:30:56.673Z,25
2018-03-09T06:31:57.432Z,25
2018-03-09T06:32:58.184Z,30
2018-03-09T06:33:58.913Z,30
2018-03-09T06:34:59.641Z,30
2018-03-09T06:36:00.362Z,35
2018-03-09T06:37:01.097Z,35
2018-03-09T06:38:01.816Z,35
2018-03-09T06:39:02.535Z,35
2018-03-09T06:40:03.278Z,35
2018-03-09T06:41:04.017Z,35
2018-03-09T06:42:04.730Z,40
2018-03-09T06:43:05.468Z,40
2018-03-09T06:44:06.215Z,40
2018-03-09T06:45:06.948Z,45
2018-03-09T06:46:07.680Z,45
2018-03-09T06:47:08.413Z,50
2018-03-09T06:48:09.133Z,55
2018-03-09T06:49:09.878Z,55
2018-03-09T06:50:10.635Z,60
2018-03-09T06:51:11.366Z,60
2018-03-09T06:52:12.088Z,60
2018-03-09T06:53:12.809Z,60
2018-03-09T06:54:13.533Z,65
2018-03-09T06:55:14.264Z,65
2018-03-09T06:56:15.032Z,70
2018-03-09T06:57:15.752Z,70
2018-03-09T06:58:16.472Z,70
2018-03-09T06:59:17.228Z,70
2018-03-09T07:00:17.947Z,75
2018-03-09T07:01:18.678Z,70
2018-03-09T07:02:19.397Z,75
2018-03-09T07:03:20.118Z,75
2018-03-09T07:04:20.850Z,75
2018-03-09T07:05:21.573Z,75
2018-03-09T07:06:22.293Z,80
2018-03-09T07:07:23.026Z,75
2018-03-09T07:08:23.785Z,75
2018-03-09T07:09:24.536Z,75
2018-03-09T07:10:25.268Z,75
2018-03-09T07:11:26.001Z,75
2018-03-09T07:12:26.721Z,90
2018-03-09T07:13:27.444Z,105
2018-03-09T07:14:28.176Z,95
2018-03-09T07:15:28.909Z,85
2018-03-09T07:16:29.640Z,85
2018-03-09T07:17:30.371Z,85
2018-03-09T07:18:31.090Z,80
2018-03-09T07:19:31.846Z,80
2018-03-09T07:20:32.577Z,75
2018-03-09T07:21:33.307Z,80
2018-03-09T07:22:34.061Z,80
2018-03-09T07:23:34.792Z,80
2018-03-09T07:24:35.546Z,80
2018-03-09T07:25:36.268Z,80
2018-03-09T07:26:37.011Z,85
2018-03-09T07:27:37.744Z,90
2018-03-09T07:28:38.467Z,90
2018-03-09T07:29:39.197Z,80
2018-03-09T07:30:39.929Z,80
2018-03-09T07:31:40.648Z,85
2018-03-09T07:32:41.392Z,100
2018-03-09T07:33:42.140Z,85
2018-03-09T07:34:42.880Z,85
2018-03-09T07:35:43.578Z,95
2018-03-09T07:36:44.297Z,80
2018-03-09T07:37:45.031Z,80
2018-03-09T07:38:45.763Z,100
2018-03-09T07:39:46.487Z,105
2018-03-09T07:40:47.207Z,110
2018-03-09T07:41:47.930Z,100
2018-03-09T07:42:48.678Z,110
2018-03-09T07:43:49.400Z,110
2018-03-09T07:44:50.135Z,120
2018-03-09T07:45:50.891Z,105
2018-03-09T07:46:51.614Z,115
2018-03-09T07:47:52.335Z,125
2018-03-09T07:48:53.060Z,125
2018-03-09T07:49:53.799Z,120
2018-03-09T07:50:54.517Z,140
2018-03-09T07:51:55.241Z,125
2018-03-09T07:52:55.964Z,125
2018-03-09T07:53:56.698Z,135
2018-03-09T07:54:57.420Z,145
2018-03-09T07:55:58.140Z,160
2018-03-09T07:56:58.862Z,145
2018-03-09T07:57:59.585Z,145
2018-03-09T07:59:00.319Z,145
2018-03-09T08:00:01.054Z,150
2018-03-09T08:01:01.822Z,185
2018-03-09T08:02:02.543Z,155
2018-03-09T08:03:03.290Z,175
2018-03-09T08:04:04.012Z,170
2018-03-09T08:05:04.769Z,165
2018-03-09T08:06:05.490Z,150
2018-03-09T08:07:06.269Z,160
2018-03-09T08:08:06.965Z,165
2018-03-09T08:09:07.688Z,165
2018-03-09T08:10:08.411Z,145
2018-03-09T08:11:09.150Z,145
2018-03-09T08:12:09.870Z,125
2018-03-09T08:13:10.614Z,130
2018-03-09T08:14:11.351Z,130
2018-03-09T08:15:12.086Z,130
2018-03-09T08:16:12.855Z,145
2018-03-09T08:17:13.535Z,155
2018-03-09T08:18:14.284Z,160
2018-03-09T08:19:15.008Z,165
2018-03-09T08:20:15.732Z,150
2018-03-09T08:21:16.512Z,160
2018-03-09T08:22:17.257Z,160
2018-03-09T08:23:17.991Z,160
2018-03-09T08:24:18.716Z,165
2018-03-09T08:25:19.474Z,150
2018-03-09T08:26:20.233Z,150
2018-03-09T08:27:20.957Z,145
2018-03-09T08:28:21.685Z,150
2018-03-09T08:29:22.406Z,145
2018-03-09T08:30:23.146Z,130
2018-03-09T08:31:23.877Z,125
2018-03-09T08:32:24.614Z,150
2018-03-09T08:33:25.348Z,150
2018-03-09T08:34:26.069Z,155
2018-03-09T08:35:26.807Z,150
2018-03-09T08:36:27.529Z,145
2018-03-09T08:37:28.292Z,145
2018-03-09T08:38:29.018Z,135
2018-03-09T08:39:29.744Z,135
2018-03-09T08:40:30.467Z,140
2018-03-09T08:41:31.215Z,155
2018-03-09T08:42:31.940Z,135
2018-03-09T08:43:32.686Z,130
2018-03-09T08:44:33.444Z,135
2018-03-09T08:45:34.180Z,135
2018-03-09T08:46:34.938Z,140
2018-03-09T08:47:35.707Z,140
2018-03-09T08:48:36.388Z,140
2018-03-09T08:49:37.112Z,140
2018-03-09T08:50:37.845Z,145
2018-03-09T08:51:38.616Z,125
2018-03-09T08:52:39.339Z,130
2018-03-09T08:53:40.064Z,130
2018-03-09T08:54:40.789Z,135
2018-03-09T08:55:41.512Z,125
2018-03-09T08:56:42.252Z,130
2018-03-09T08:57:42.974Z,135
2018-03-09T08:58:43.697Z,140
2018-03-09T08:59:44.421Z,135
2018-03-09T09:00:45.157Z,155
2018-03-09T09:01:45.893Z,135
2018-03-09T09:02:46.618Z,135
2018-03-09T09:03:47.356Z,140
2018-03-09T09:04:48.080Z,165
2018-03-09T09:05:48.816Z,170
2018-03-09T09:06:49.550Z,165
2018-03-09T09:07:50.310Z,165
2018-03-09T09:08:51.035Z,155
2018-03-09T09:09:51.786Z,160
2018-03-09T09:10:52.524Z,145
2018-03-09T09:11:53.250Z,160
2018-03-09T09:12:53.975Z,150
2018-03-09T09:13:54.734Z,150
2018-03-09T09:14:55.424Z,150
2018-03-09T09:15:56.159Z,150
2018-03-09T09:16:56.895Z,155
2018-03-09T09:17:57.667Z,145
2018-03-09T09:18:58.344Z,150
2018-03-09T09:19:59.070Z,140
2018-03-09T09:20:59.831Z,145
2018-03-09T09:22:00.564Z,150
2018-03-09T09:23:01.293Z,155
2018-03-09T09:24:02.016Z,160
2018-03-09T09:25:02.746Z,145
2018-03-09T09:26:03.478Z,145
2018-03-09T09:27:04.204Z,140
2018-03-09T09:28:04.930Z,140
2018-03-09T09:29:05.655Z,140
2018-03-09T09:30:06.379Z,155
2018-03-09T09:31:07.103Z,135
2018-03-09T09:32:07.831Z,150
2018-03-09T09:33:08.581Z,170
2018-03-09T09:34:09.307Z,145
2018-03-09T09:35:10.044Z,140
2018-03-09T09:36:10.801Z,185
2018-03-09T09:37:11.537Z,220
2018-03-09T09:38:12.308Z,180
2018-03-09T09:39:13.034Z,155
2018-03-09T09:40:13.769Z,135
2018-03-09T09:41:14.507Z,170
2018-03-09T09:42:15.266Z,145
2018-03-09T09:43:15.991Z,135
2018-03-09T09:44:16.718Z,125
2018-03-09T09:45:17.471Z,125
2018-03-09T09:46:18.196Z,125
2018-03-09T09:47:18.920Z,130
2018-03-09T09:48:19.644Z,120
2018-03-09T09:49:20.371Z,135
2018-03-09T09:50:21.108Z,155
2018-03-09T09:51:21.868Z,145
2018-03-09T09:52:22.603Z,130
2018-03-09T09:53:23.393Z,125
2018-03-09T09:54:24.128Z,125
2018-03-09T09:55:24.827Z,120
2018-03-09T09:56:25.564Z,115
2018-03-09T09:57:26.286Z,115
2018-03-09T09:58:27.022Z,105
2018-03-09T09:59:27.803Z,95
2018-03-09T10:00:28.481Z,90
2018-03-09T10:01:29.204Z,110
2018-03-09T10:02:29.941Z,120
2018-03-09T10:03:30.666Z,135
2018-03-09T10:04:31.428Z,125
2018-03-09T10:05:32.152Z,140
2018-03-09T10:06:32.878Z,155
2018-03-09T10:07:33.645Z,140
2018-03-09T10:08:34.342Z,135
2018-03-09T10:09:35.065Z,160
2018-03-09T10:10:35.825Z,170
2018-03-09T10:11:36.585Z,165
2018-03-09T10:12:37.311Z,155
2018-03-09T10:13:38.046Z,150
2018-03-09T10:14:38.782Z,145
2018-03-09T10:15:39.531Z,150
2018-03-09T10:16:40.258Z,155
2018-03-09T10:17:40.995Z,150
2018-03-09T10:18:41.732Z,140
2018-03-09T10:19:42.458Z,145
2018-03-09T10:20:43.184Z,140
2018-03-09T10:21:43.950Z,185
2018-03-09T10:22:44.658Z,235
2018-03-09T10:23:45.431Z,195
2018-03-09T10:24:46.167Z,180
2018-03-09T10:25:46.892Z,275
2018-03-09T10:26:47.618Z,565
2018-03-09T10:27:48.371Z,300
2018-03-09T10:28:49.118Z,270
2018-03-09T10:29:49.857Z,275
2018-03-09T10:30:50.587Z,330
2018-03-09T10:31:51.352Z,545
2018-03-09T10:32:52.090Z,770
2018-03-09T10:33:52.863Z,570
2018-03-09T10:34:53.638Z,515
2018-03-09T10:35:54.345Z,380
2018-03-09T10:36:55.078Z,300
2018-03-09T10:37:55.803Z,620
2018-03-09T10:38:56.545Z,410
2018-03-09T10:39:57.271Z,345
2018-03-09T10:40:57.999Z,285
2018-03-09T10:41:58.742Z,285
2018-03-09T10:42:59.454Z,280
2018-03-09T10:44:00.182Z,310
2018-03-09T10:45:00.910Z,475
2018-03-09T10:46:01.662Z,400
2018-03-09T10:47:02.402Z,555
2018-03-09T10:48:03.179Z,1420
2018-03-09T10:49:03.926Z,725
2018-03-09T10:50:04.655Z,535
2018-03-09T10:51:05.397Z,575
2018-03-09T10:52:06.128Z,935
2018-03-09T10:53:06.861Z,1310
2018-03-09T10:54:07.593Z,1635
2018-03-09T10:55:08.341Z,1520
2018-03-09T10:56:09.090Z,1540
2018-03-09T10:57:09.829Z,1630
2018-03-09T10:58:10.569Z,1695
2018-03-09T10:59:11.308Z,960
2018-03-09T11:00:12.046Z,595
2018-03-09T11:01:12.797Z,1655
2018-03-09T11:02:13.551Z,1145
2018-03-09T11:03:14.298Z,1650
2018-03-09T11:04:15.051Z,1620
2018-03-09T11:05:15.793Z,1435
2018-03-09T11:06:16.570Z,1645
2018-03-09T11:07:17.316Z,1715
2018-03-09T11:08:18.058Z,1545
2018-03-09T11:09:18.824Z,1745
2018-03-09T11:10:19.578Z,1770
2018-03-09T11:11:20.320Z,1730
2018-03-09T11:12:21.084Z,1770
2018-03-09T11:13:21.828Z,1690
2018-03-09T11:14:22.583Z,1750
2018-03-09T11:15:23.327Z,1785
2018-03-09T11:16:24.068Z,955
2018-03-09T11:17:24.811Z,1205
2018-03-09T11:18:25.559Z,1890
2018-03-09T11:19:26.380Z,1670
2018-03-09T11:20:27.076Z,1815
2018-03-09T11:21:27.828Z,875
2018-03-09T11:22:28.573Z,625
2018-03-09T11:23:29.328Z,810
2018-03-09T11:24:30.080Z,960
2018-03-09T11:25:30.856Z,1445
2018-03-09T11:26:31.608Z,620
2018-03-09T11:27:32.396Z,560
2018-03-09T11:28:33.183Z,1280
2018-03-09T11:29:33.925Z,1715
2018-03-09T11:30:34.667Z,810
2018-03-09T11:31:35.407Z,500
2018-03-09T11:32:36.147Z,1085
2018-03-09T11:33:36.902Z,725
2018-03-09T11:34:37.658Z,1835
2018-03-09T11:35:38.429Z,1965
2018-03-09T11:36:39.194Z,865
2018-03-09T11:37:39.945Z,1605
2018-03-09T11:38:40.699Z,1760
2018-03-09T11:39:41.438Z,540
2018-03-09T11:40:42.181Z,545
2018-03-09T11:41:42.923Z,1545
2018-03-09T11:42:43.679Z,1755
2018-03-09T11:43:44.429Z,1640
2018-03-09T11:44:45.171Z,495
2018-03-09T11:45:45.922Z,460
2018-03-09T11:46:46.661Z,660
2018-03-09T11:47:47.415Z,1860
2018-03-09T11:48:48.192Z,685
2018-03-09T11:49:48.945Z,1865
2018-03-09T11:50:49.686Z,1815
2018-03-09T11:51:50.452Z,1380
2018-03-09T11:52:51.194Z,590
2018-03-09T11:53:51.936Z,400
2018-03-09T11:54:52.688Z,365
2018-03-09T11:55:53.426Z,525
2018-03-09T11:56:54.177Z,530
2018-03-09T11:57:54.915Z,485
2018-03-09T11:58:55.676Z,530
2018-03-09T11:59:56.414Z,635
2018-03-09T12:00:57.152Z,435
2018-03-09T12:01:57.927Z,440
2018-03-09T12:02:58.665Z,1665
2018-03-09T12:03:59.438Z,1580
2018-03-09T12:05:00.186Z,415
2018-03-09T12:06:00.935Z,290
2018-03-09T12:07:01.719Z,280
2018-03-09T12:08:02.489Z,300
2018-03-09T12:09:03.244Z,1025
2018-03-09T12:10:03.987Z,460
2018-03-09T12:11:04.723Z,415
2018-03-09T12:12:05.481Z,370
2018-03-09T12:13:06.246Z,380
2018-03-09T12:14:06.999Z,350
2018-03-09T12:15:07.733Z,310
2018-03-09T12:16:08.490Z,285
2018-03-09T12:17:09.224Z,250
2018-03-09T12:18:09.959Z,220
2018-03-09T12:19:10.702Z,220
2018-03-09T12:20:11.447Z,265
2018-03-09T12:21:12.181Z,300
2018-03-09T12:22:12.925Z,340
2018-03-09T12:23:13.658Z,230
2018-03-09T12:24:14.401Z,220
2018-03-09T12:25:15.167Z,200
2018-03-09T12:26:15.901Z,225
2018-03-09T12:27:16.637Z,610
2018-03-09T12:28:17.390Z,590
2018-03-09T12:29:18.133Z,460
2018-03-09T12:30:18.879Z,490
2018-03-09T12:31:19.623Z,555
2018-03-09T12:32:20.356Z,565
2018-03-09T12:33:21.113Z,545
2018-03-09T12:34:21.871Z,505
2018-03-09T12:35:22.608Z,495
2018-03-09T12:36:23.347Z,440
2018-03-09T12:37:24.114Z,370
2018-03-09T12:38:24.846Z,370
2018-03-09T12:39:25.576Z,350
2018-03-09T12:40:26.309Z,280
2018-03-09T12:41:27.038Z,250
2018-03-09T12:42:27.771Z,265
2018-03-09T12:43:28.509Z,300
2018-03-09T12:44:29.253Z,340
2018-03-09T12:45:30.019Z,305
2018-03-09T12:46:30.762Z,310
2018-03-09T12:47:31.537Z,280
2018-03-09T12:48:32.271Z,315
2018-03-09T12:49:33.034Z,350
2018-03-09T12:50:33.809Z,340
2018-03-09T12:51:34.556Z,315
2018-03-09T12:52:35.319Z,300
2018-03-09T12:53:36.055Z,485
2018-03-09T12:54:36.805Z,560
2018-03-09T12:55:37.563Z,480
2018-03-09T12:56:38.308Z,595
2018-03-09T12:57:39.040Z,580
2018-03-09T12:58:39.779Z,535
2018-03-09T12:59:40.511Z,555
2018-03-09T13:00:41.255Z,600
2018-03-09T13:01:42.022Z,930
2018-03-09T13:02:42.754Z,865
2018-03-09T13:03:43.486Z,595
2018-03-09T13:04:44.217Z,875
2018-03-09T13:05:44.950Z,655
2018-03-09T13:06:45.681Z,550
2018-03-09T13:07:46.426Z,520
2018-03-09T13:08:47.205Z,795
2018-03-09T13:09:47.951Z,1180
2018-03-09T13:10:48.683Z,510
2018-03-09T13:11:49.430Z,500
2018-03-09T13:12:50.162Z,535
2018-03-09T13:13:50.897Z,495
2018-03-09T13:14:51.631Z,475
2018-03-09T13:15:52.366Z,425
2018-03-09T13:16:53.095Z,540
2018-03-09T13:17:53.864Z,555
2018-03-09T13:18:54.608Z,405
2018-03-09T13:19:55.353Z,385
2018-03-09T13:20:56.087Z,415
2018-03-09T13:21:56.856Z,445
2018-03-09T13:22:57.565Z,405
2018-03-09T13:23:58.323Z,370
2018-03-09T13:24:59.053Z,390
2018-03-09T13:25:59.787Z,785
2018-03-09T13:27:00.522Z,410
2018-03-09T13:28:01.256Z,425
2018-03-09T13:29:01.998Z,495
2018-03-09T13:30:02.732Z,520
2018-03-09T13:31:03.500Z,340
2018-03-09T13:32:04.275Z,785
2018-03-09T13:33:05.042Z,730
2018-03-09T13:34:05.779Z,415
2018-03-09T13:35:06.510Z,400
2018-03-09T13:36:07.245Z,360
2018-03-09T13:37:08.004Z,340
2018-03-09T13:38:08.746Z,345
2018-03-09T13:39:09.476Z,360
2018-03-09T13:40:10.219Z,975
2018-03-09T13:42:11.706Z,380
2018-03-09T13:43:12.439Z,400
2018-03-09T13:44:13.184Z,550
2018-03-09T13:45:13.912Z,545
2018-03-09T13:46:14.646Z,915
2018-03-09T13:47:15.409Z,920
2018-03-09T13:48:16.124Z,1235
2018-03-09T13:49:16.880Z,930
2018-03-09T13:50:17.636Z,510
2018-03-09T13:51:18.392Z,940
2018-03-09T13:52:19.136Z,415
2018-03-09T13:53:19.882Z,405
2018-03-09T13:54:20.626Z,840
2018-03-09T13:55:21.358Z,535
2018-03-09T13:56:22.091Z,485
2018-03-09T13:57:22.837Z,430
2018-03-09T13:58:23.574Z,400
2018-03-09T13:59:24.303Z,365
2018-03-09T14:00:25.048Z,355
2018-03-09T14:01:25.783Z,375
2018-03-09T14:02:26.517Z,375
2018-03-09T14:03:27.250Z,355
2018-03-09T14:04:27.985Z,400
2018-03-09T14:05:28.732Z,415
2018-03-09T14:06:29.467Z,445
2018-03-09T14:07:30.211Z,420
2018-03-09T14:08:30.956Z,430
2018-03-09T14:09:31.686Z,445
2018-03-09T14:10:32.418Z,430
2018-03-09T14:11:33.171Z,430
2018-03-09T14:12:33.905Z,425
2018-03-09T14:13:34.673Z,400
2018-03-09T14:14:35.415Z,380
2018-03-09T14:15:36.147Z,370
2018-03-09T14:16:36.891Z,365
2018-03-09T14:17:37.635Z,365
2018-03-09T14:18:38.365Z,375
2018-03-09T14:19:39.098Z,400
2018-03-09T14:20:39.976Z,450
2018-03-09T14:21:40.616Z,480
2018-03-09T14:22:41.384Z,475
2018-03-09T14:23:42.113Z,505